This is the latest recevied weather packets stored in our database for station/object F4AMY-13. If no packets are shown the sender has not sent any weather packets the latest 10 day(s).
| Time | Temp. | Humidity | Pressure | Rain* | Wind** | Luminosity | Snow |
|---|---|---|---|---|---|---|---|
| 1777570929 | 18.89° C | 69% | 1017.7 hPa | 0 mm | 8.05 m/s, ° | 18 W/m² | - |
| 1777570629 | 18.89° C | 68% | 1017.9 hPa | 0 mm | 8.94 m/s, ° | 20 W/m² | - |
| 1777570329 | 18.89° C | 68% | 1018 hPa | 0 mm | 7.6 m/s, ° | 17 W/m² | - |
| 1777570029 | 18.89° C | 67% | 1017.9 hPa | 0 mm | 7.15 m/s, ° | 16 W/m² | - |
| 1777569728 | 19.44° C | 67% | 1018 hPa | 0 mm | 8.05 m/s, ° | 18 W/m² | - |
| 1777569429 | 19.44° C | 65% | 1018 hPa | 0 mm | 9.39 m/s, ° | 21 W/m² | - |
| 1777569129 | 20° C | 69% | 1018 hPa | 0 mm | 11.62 m/s, ° | 26 W/m² | - |
| 1777568828 | 20° C | 67% | 1018.2 hPa | 0 mm | 14.31 m/s, ° | 32 W/m² | - |
| 1777568528 | 20° C | 68% | 1017.9 hPa | 0 mm | 15.65 m/s, ° | 35 W/m² | - |
| 1777568228 | 20° C | 64% | 1018.1 hPa | 0 mm | 19.67 m/s, ° | 44 W/m² | - |
| 1777567928 | 20° C | 62% | 1018 hPa | 0 mm | 22.35 m/s, ° | 50 W/m² | - |
| 1777567628 | 20° C | 68% | 1018.1 hPa | 0 mm | 25.93 m/s, ° | 58 W/m² | - |
| 1777567328 | 20° C | 64% | 1018.1 hPa | 0 mm | 22.8 m/s, ° | 51 W/m² | - |
| 1777567028 | 20° C | 63% | 1018.2 hPa | 0 mm | 30.85 m/s, ° | 69 W/m² | - |
| 1777566728 | 20° C | 62% | 1018.2 hPa | 0 mm | 19.67 m/s, ° | 44 W/m² | - |
| 1777566428 | 20° C | 63% | 1018 hPa | 0 mm | 20.12 m/s, ° | 45 W/m² | - |
| 1777566128 | 20° C | 64% | 1017.9 hPa | 0 mm | 18.78 m/s, ° | 42 W/m² | - |
| 1777565828 | 19.44° C | 66% | 1018.1 hPa | 0 mm | 19.22 m/s, ° | 43 W/m² | - |
| 1777565528 | 19.44° C | 64% | 1017.9 hPa | 0 mm | 20.12 m/s, ° | 45 W/m² | - |
| 1777565228 | 19.44° C | 65% | 1018.1 hPa | 0 mm | 20.56 m/s, ° | 46 W/m² | - |
| 1777564928 | 19.44° C | 66% | 1018.1 hPa | 0 mm | 19.22 m/s, ° | 43 W/m² | - |
| 1777564627 | 19.44° C | 63% | 1018.1 hPa | 0 mm | 20.12 m/s, ° | 45 W/m² | - |
| 1777564327 | 20° C | 63% | 1018 hPa | 0 mm | 18.78 m/s, ° | 42 W/m² | - |
| 1777564027 | 20° C | 63% | 1017.9 hPa | 0 mm | 16.54 m/s, ° | 37 W/m² | - |
| 1777563727 | 20° C | 62% | 1018 hPa | 0 mm | 12.96 m/s, ° | 29 W/m² | - |
* Rain latest hour (hover to see other rain measurements)
** Current wind speed in m/s (hover to see current wind gust speed)